sensor_id;sensor_type;location;lat;lon;timestamp;P1;durP1;ratioP1;P2;durP2;ratioP2
7199;SDS011;3641;49.082;8.200;2022-08-01T00:00:01;3.67;;;2.47;;
7199;SDS011;3641;49.082;8.200;2022-08-01T00:02:31;3.55;;;2.40;;
7199;SDS011;3641;49.082;8.200;2022-08-01T00:04:57;3.05;;;2.15;;
7199;SDS011;3641;49.082;8.200;2022-08-01T00:07:25;5.40;;;2.38;;
7199;SDS011;3641;49.082;8.200;2022-08-01T00:09:51;3.65;;;2.42;;
7199;SDS011;3641;49.082;8.200;2022-08-01T00:12:19;4.03;;;2.13;;
7199;SDS011;3641;49.082;8.200;2022-08-01T00:14:46;3.72;;;2.28;;
7199;SDS011;3641;49.082;8.200;2022-08-01T00:17:12;4.78;;;2.67;;
7199;SDS011;3641;49.082;8.200;2022-08-01T00:19:39;3.85;;;2.30;;
7199;SDS011;3641;49.082;8.200;2022-08-01T00:22:05;3.65;;;2.20;;
7199;SDS011;3641;49.082;8.200;2022-08-01T00:24:32;4.32;;;2.60;;
7199;SDS011;3641;49.082;8.200;2022-08-01T00:26:59;3.97;;;2.42;;
7199;SDS011;3641;49.082;8.200;2022-08-01T00:29:27;3.03;;;2.33;;
7199;SDS011;3641;49.082;8.200;2022-08-01T00:31:53;5.63;;;2.08;;
7199;SDS011;3641;49.082;8.200;2022-08-01T00:34:20;4.68;;;2.25;;
7199;SDS011;3641;49.082;8.200;2022-08-01T00:36:46;4.10;;;2.30;;
7199;SDS011;3641;49.082;8.200;2022-08-01T00:39:13;3.72;;;2.30;;
7199;SDS011;3641;49.082;8.200;2022-08-01T00:41:39;3.25;;;2.40;;
7199;SDS011;3641;49.082;8.200;2022-08-01T00:44:06;4.30;;;2.17;;
7199;SDS011;3641;49.082;8.200;2022-08-01T00:46:34;2.83;;;1.92;;
7199;SDS011;3641;49.082;8.200;2022-08-01T00:49:01;2.88;;;2.28;;
7199;SDS011;3641;49.082;8.200;2022-08-01T00:51:28;4.18;;;2.20;;
7199;SDS011;3641;49.082;8.200;2022-08-01T00:53:54;4.25;;;2.13;;
7199;SDS011;3641;49.082;8.200;2022-08-01T00:56:22;3.10;;;2.20;;
7199;SDS011;3641;49.082;8.200;2022-08-01T00:58:50;4.22;;;2.20;;
7199;SDS011;3641;49.082;8.200;2022-08-01T01:01:17;2.88;;;1.80;;
7199;SDS011;3641;49.082;8.200;2022-08-01T01:03:46;4.30;;;2.00;;
7199;SDS011;3641;49.082;8.200;2022-08-01T01:06:16;4.45;;;1.90;;
7199;SDS011;3641;49.082;8.200;2022-08-01T01:08:54;4.90;;;2.22;;
7199;SDS011;3641;49.082;8.200;2022-08-01T01:11:31;3.88;;;2.05;;
7199;SDS011;3641;49.082;8.200;2022-08-01T01:14:05;3.22;;;2.10;;
7199;SDS011;3641;49.082;8.200;2022-08-01T01:16:39;2.78;;;2.10;;
7199;SDS011;3641;49.082;8.200;2022-08-01T01:19:11;5.43;;;2.25;;
7199;SDS011;3641;49.082;8.200;2022-08-01T01:21:55;5.40;;;2.35;;
7199;SDS011;3641;49.082;8.200;2022-08-01T01:24:40;5.38;;;2.20;;
7199;SDS011;3641;49.082;8.200;2022-08-01T01:27:20;4.50;;;2.03;;
7199;SDS011;3641;49.082;8.200;2022-08-01T01:29:56;3.70;;;1.90;;
7199;SDS011;3641;49.082;8.200;2022-08-01T01:32:26;3.05;;;1.95;;
7199;SDS011;3641;49.082;8.200;2022-08-01T01:34:59;4.70;;;2.08;;
7199;SDS011;3641;49.082;8.200;2022-08-01T01:37:27;4.03;;;2.33;;
7199;SDS011;3641;49.082;8.200;2022-08-01T01:39:57;3.20;;;1.83;;
7199;SDS011;3641;49.082;8.200;2022-08-01T01:42:26;2.75;;;1.90;;
7199;SDS011;3641;49.082;8.200;2022-08-01T01:44:52;6.20;;;2.30;;
7199;SDS011;3641;49.082;8.200;2022-08-01T01:47:23;6.05;;;2.20;;
7199;SDS011;3641;49.082;8.200;2022-08-01T01:49:51;3.47;;;2.15;;
7199;SDS011;3641;49.082;8.200;2022-08-01T01:52:20;5.25;;;2.22;;
7199;SDS011;3641;49.082;8.200;2022-08-01T01:54:49;4.18;;;2.67;;
7199;SDS011;3641;49.082;8.200;2022-08-01T01:57:18;4.45;;;3.17;;
7199;SDS011;3641;49.082;8.200;2022-08-01T01:59:46;5.50;;;3.05;;
7199;SDS011;3641;49.082;8.200;2022-08-01T02:02:15;3.60;;;2.70;;
7199;SDS011;3641;49.082;8.200;2022-08-01T02:04:43;6.43;;;3.20;;
7199;SDS011;3641;49.082;8.200;2022-08-01T02:07:12;5.18;;;2.88;;
7199;SDS011;3641;49.082;8.200;2022-08-01T02:09:41;5.03;;;3.38;;
7199;SDS011;3641;49.082;8.200;2022-08-01T02:12:09;6.07;;;3.10;;
7199;SDS011;3641;49.082;8.200;2022-08-01T02:14:36;4.35;;;2.92;;
7199;SDS011;3641;49.082;8.200;2022-08-01T02:17:05;4.47;;;2.95;;
7199;SDS011;3641;49.082;8.200;2022-08-01T02:19:33;9.27;;;2.92;;
7199;SDS011;3641;49.082;8.200;2022-08-01T02:22:00;4.55;;;3.00;;
7199;SDS011;3641;49.082;8.200;2022-08-01T02:24:31;4.30;;;3.30;;
7199;SDS011;3641;49.082;8.200;2022-08-01T02:27:03;3.95;;;2.63;;
7199;SDS011;3641;49.082;8.200;2022-08-01T02:29:36;6.80;;;2.90;;
7199;SDS011;3641;49.082;8.200;2022-08-01T02:32:06;4.13;;;2.58;;
7199;SDS011;3641;49.082;8.200;2022-08-01T02:34:38;4.82;;;2.85;;
7199;SDS011;3641;49.082;8.200;2022-08-01T02:37:06;4.50;;;2.80;;
7199;SDS011;3641;49.082;8.200;2022-08-01T02:39:33;4.70;;;3.05;;
7199;SDS011;3641;49.082;8.200;2022-08-01T02:42:04;4.50;;;2.42;;
7199;SDS011;3641;49.082;8.200;2022-08-01T02:44:35;4.55;;;2.70;;
7199;SDS011;3641;49.082;8.200;2022-08-01T02:47:04;4.50;;;2.72;;
7199;SDS011;3641;49.082;8.200;2022-08-01T02:49:32;4.82;;;3.00;;
7199;SDS011;3641;49.082;8.200;2022-08-01T02:52:03;5.05;;;2.58;;
7199;SDS011;3641;49.082;8.200;2022-08-01T02:54:33;4.43;;;2.80;;
7199;SDS011;3641;49.082;8.200;2022-08-01T02:57:02;6.00;;;3.10;;
7199;SDS011;3641;49.082;8.200;2022-08-01T02:59:32;6.07;;;3.28;;
7199;SDS011;3641;49.082;8.200;2022-08-01T03:02:02;7.03;;;2.92;;
7199;SDS011;3641;49.082;8.200;2022-08-01T03:04:30;3.53;;;2.63;;
7199;SDS011;3641;49.082;8.200;2022-08-01T03:07:00;5.47;;;3.10;;
7199;SDS011;3641;49.082;8.200;2022-08-01T03:09:31;4.85;;;2.70;;
7199;SDS011;3641;49.082;8.200;2022-08-01T03:12:01;5.30;;;3.03;;
7199;SDS011;3641;49.082;8.200;2022-08-01T03:14:30;3.70;;;2.88;;
7199;SDS011;3641;49.082;8.200;2022-08-01T03:17:11;5.15;;;2.90;;
7199;SDS011;3641;49.082;8.200;2022-08-01T03:19:39;5.55;;;3.08;;
7199;SDS011;3641;49.082;8.200;2022-08-01T03:22:09;4.68;;;2.95;;
7199;SDS011;3641;49.082;8.200;2022-08-01T03:24:39;4.40;;;2.92;;
7199;SDS011;3641;49.082;8.200;2022-08-01T03:27:07;4.47;;;3.13;;
7199;SDS011;3641;49.082;8.200;2022-08-01T03:29:34;4.20;;;2.88;;
7199;SDS011;3641;49.082;8.200;2022-08-01T03:32:02;3.60;;;2.80;;
7199;SDS011;3641;49.082;8.200;2022-08-01T03:34:30;6.82;;;3.10;;
7199;SDS011;3641;49.082;8.200;2022-08-01T03:36:59;4.43;;;2.78;;
7199;SDS011;3641;49.082;8.200;2022-08-01T03:39:34;4.68;;;3.28;;
7199;SDS011;3641;49.082;8.200;2022-08-01T03:42:07;6.35;;;3.25;;
7199;SDS011;3641;49.082;8.200;2022-08-01T03:44:40;4.90;;;3.10;;
7199;SDS011;3641;49.082;8.200;2022-08-01T03:47:08;6.20;;;3.13;;
7199;SDS011;3641;49.082;8.200;2022-08-01T03:49:36;4.97;;;2.90;;
7199;SDS011;3641;49.082;8.200;2022-08-01T03:52:07;5.93;;;3.10;;
7199;SDS011;3641;49.082;8.200;2022-08-01T03:54:37;4.72;;;3.17;;
7199;SDS011;3641;49.082;8.200;2022-08-01T03:57:06;5.30;;;3.25;;
7199;SDS011;3641;49.082;8.200;2022-08-01T03:59:35;4.72;;;3.42;;
7199;SDS011;3641;49.082;8.200;2022-08-01T04:02:03;5.15;;;3.08;;
7199;SDS011;3641;49.082;8.200;2022-08-01T04:04:30;6.97;;;2.97;;
7199;SDS011;3641;49.082;8.200;2022-08-01T04:06:57;8.48;;;3.10;;
7199;SDS011;3641;49.082;8.200;2022-08-01T04:09:29;4.72;;;2.90;;
7199;SDS011;3641;49.082;8.200;2022-08-01T04:11:57;5.30;;;3.00;;
7199;SDS011;3641;49.082;8.200;2022-08-01T04:14:24;7.55;;;3.25;;
7199;SDS011;3641;49.082;8.200;2022-08-01T04:16:50;7.00;;;3.08;;
7199;SDS011;3641;49.082;8.200;2022-08-01T04:19:17;6.10;;;3.45;;
7199;SDS011;3641;49.082;8.200;2022-08-01T04:21:43;4.50;;;3.17;;
7199;SDS011;3641;49.082;8.200;2022-08-01T04:24:12;3.97;;;2.90;;
7199;SDS011;3641;49.082;8.200;2022-08-01T04:26:41;5.15;;;3.42;;
7199;SDS011;3641;49.082;8.200;2022-08-01T04:29:11;4.50;;;3.13;;
7199;SDS011;3641;49.082;8.200;2022-08-01T04:31:43;5.40;;;3.22;;
7199;SDS011;3641;49.082;8.200;2022-08-01T04:34:12;5.43;;;2.97;;
7199;SDS011;3641;49.082;8.200;2022-08-01T04:36:41;4.95;;;3.50;;
7199;SDS011;3641;49.082;8.200;2022-08-01T04:39:10;5.65;;;3.10;;
7199;SDS011;3641;49.082;8.200;2022-08-01T04:41:38;4.80;;;3.30;;
7199;SDS011;3641;49.082;8.200;2022-08-01T04:44:04;5.30;;;3.17;;
7199;SDS011;3641;49.082;8.200;2022-08-01T04:46:33;5.63;;;2.92;;
7199;SDS011;3641;49.082;8.200;2022-08-01T04:49:01;5.07;;;3.42;;
7199;SDS011;3641;49.082;8.200;2022-08-01T04:51:30;6.35;;;3.47;;
7199;SDS011;3641;49.082;8.200;2022-08-01T04:53:57;4.22;;;2.83;;
7199;SDS011;3641;49.082;8.200;2022-08-01T04:56:23;4.95;;;3.13;;
7199;SDS011;3641;49.082;8.200;2022-08-01T04:58:50;5.50;;;3.40;;
7199;SDS011;3641;49.082;8.200;2022-08-01T05:01:38;6.32;;;3.20;;
7199;SDS011;3641;49.082;8.200;2022-08-01T05:04:04;4.95;;;3.05;;
7199;SDS011;3641;49.082;8.200;2022-08-01T05:06:31;4.43;;;3.20;;
7199;SDS011;3641;49.082;8.200;2022-08-01T05:08:57;6.40;;;3.45;;
7199;SDS011;3641;49.082;8.200;2022-08-01T05:11:24;6.82;;;3.40;;
7199;SDS011;3641;49.082;8.200;2022-08-01T05:13:50;4.35;;;2.92;;
7199;SDS011;3641;49.082;8.200;2022-08-01T05:16:17;4.90;;;3.22;;
7199;SDS011;3641;49.082;8.200;2022-08-01T05:18:45;5.18;;;3.03;;
7199;SDS011;3641;49.082;8.200;2022-08-01T05:21:11;6.07;;;3.35;;
7199;SDS011;3641;49.082;8.200;2022-08-01T05:23:38;5.72;;;3.10;;
7199;SDS011;3641;49.082;8.200;2022-08-01T05:26:04;5.72;;;3.35;;
7199;SDS011;3641;49.082;8.200;2022-08-01T05:28:31;5.32;;;3.22;;
7199;SDS011;3641;49.082;8.200;2022-08-01T05:30:57;6.97;;;3.10;;
7199;SDS011;3641;49.082;8.200;2022-08-01T05:33:24;4.70;;;3.10;;
7199;SDS011;3641;49.082;8.200;2022-08-01T05:35:51;4.97;;;3.10;;
7199;SDS011;3641;49.082;8.200;2022-08-01T05:38:18;6.15;;;3.55;;
7199;SDS011;3641;49.082;8.200;2022-08-01T05:40:44;3.90;;;2.90;;
7199;SDS011;3641;49.082;8.200;2022-08-01T05:43:11;3.30;;;2.90;;
7199;SDS011;3641;49.082;8.200;2022-08-01T05:45:37;4.40;;;3.10;;
7199;SDS011;3641;49.082;8.200;2022-08-01T05:48:06;6.10;;;3.53;;
7199;SDS011;3641;49.082;8.200;2022-08-01T05:50:33;4.97;;;3.15;;
7199;SDS011;3641;49.082;8.200;2022-08-01T05:53:01;5.13;;;3.15;;
7199;SDS011;3641;49.082;8.200;2022-08-01T05:55:27;6.47;;;2.95;;
7199;SDS011;3641;49.082;8.200;2022-08-01T05:57:54;5.38;;;2.80;;
7199;SDS011;3641;49.082;8.200;2022-08-01T06:00:20;4.57;;;2.60;;
7199;SDS011;3641;49.082;8.200;2022-08-01T06:02:47;5.20;;;2.72;;
7199;SDS011;3641;49.082;8.200;2022-08-01T06:05:13;4.53;;;3.08;;
7199;SDS011;3641;49.082;8.200;2022-08-01T06:07:40;4.22;;;2.72;;
7199;SDS011;3641;49.082;8.200;2022-08-01T06:10:08;4.95;;;2.70;;
7199;SDS011;3641;49.082;8.200;2022-08-01T06:12:35;4.70;;;2.90;;
7199;SDS011;3641;49.082;8.200;2022-08-01T06:15:03;4.75;;;2.55;;
7199;SDS011;3641;49.082;8.200;2022-08-01T06:17:30;4.15;;;2.65;;
7199;SDS011;3641;49.082;8.200;2022-08-01T06:19:56;4.50;;;2.85;;
7199;SDS011;3641;49.082;8.200;2022-08-01T06:22:23;3.42;;;2.50;;
7199;SDS011;3641;49.082;8.200;2022-08-01T06:24:49;5.10;;;2.40;;
7199;SDS011;3641;49.082;8.200;2022-08-01T06:27:17;3.10;;;2.22;;
7199;SDS011;3641;49.082;8.200;2022-08-01T06:29:44;5.60;;;2.38;;
7199;SDS011;3641;49.082;8.200;2022-08-01T06:32:11;5.05;;;2.28;;
7199;SDS011;3641;49.082;8.200;2022-08-01T06:34:37;3.38;;;2.10;;
7199;SDS011;3641;49.082;8.200;2022-08-01T06:37:04;7.32;;;2.35;;
7199;SDS011;3641;49.082;8.200;2022-08-01T06:39:30;6.78;;;2.58;;
7199;SDS011;3641;49.082;8.200;2022-08-01T06:41:57;4.57;;;1.80;;
7199;SDS011;3641;49.082;8.200;2022-08-01T06:44:24;3.88;;;1.70;;
7199;SDS011;3641;49.082;8.200;2022-08-01T06:46:51;5.03;;;1.70;;
7199;SDS011;3641;49.082;8.200;2022-08-01T06:49:17;3.88;;;1.80;;
7199;SDS011;3641;49.082;8.200;2022-08-01T06:51:44;5.53;;;1.60;;
7199;SDS011;3641;49.082;8.200;2022-08-01T06:54:11;4.07;;;1.80;;
7199;SDS011;3641;49.082;8.200;2022-08-01T06:56:37;6.35;;;1.50;;
7199;SDS011;3641;49.082;8.200;2022-08-01T06:59:04;4.32;;;1.60;;
7199;SDS011;3641;49.082;8.200;2022-08-01T07:01:31;3.97;;;1.67;;
7199;SDS011;3641;49.082;8.200;2022-08-01T07:03:58;2.55;;;1.48;;
7199;SDS011;3641;49.082;8.200;2022-08-01T07:06:25;3.40;;;1.52;;
7199;SDS011;3641;49.082;8.200;2022-08-01T07:08:52;4.22;;;1.80;;
7199;SDS011;3641;49.082;8.200;2022-08-01T07:11:19;3.75;;;1.63;;
7199;SDS011;3641;49.082;8.200;2022-08-01T07:13:46;4.00;;;1.63;;
7199;SDS011;3641;49.082;8.200;2022-08-01T07:16:13;2.92;;;1.40;;
7199;SDS011;3641;49.082;8.200;2022-08-01T07:18:41;3.08;;;1.60;;
7199;SDS011;3641;49.082;8.200;2022-08-01T07:21:08;4.93;;;1.63;;
7199;SDS011;3641;49.082;8.200;2022-08-01T07:23:34;2.55;;;1.10;;
7199;SDS011;3641;49.082;8.200;2022-08-01T07:26:02;3.85;;;1.20;;
7199;SDS011;3641;49.082;8.200;2022-08-01T07:28:29;4.25;;;1.17;;
7199;SDS011;3641;49.082;8.200;2022-08-01T07:30:56;2.03;;;1.00;;
7199;SDS011;3641;49.082;8.200;2022-08-01T07:33:23;1.50;;;1.10;;
7199;SDS011;3641;49.082;8.200;2022-08-01T07:35:51;1.10;;;0.80;;
7199;SDS011;3641;49.082;8.200;2022-08-01T07:38:18;1.52;;;0.75;;
7199;SDS011;3641;49.082;8.200;2022-08-01T07:40:44;2.13;;;0.73;;
7199;SDS011;3641;49.082;8.200;2022-08-01T07:43:11;0.95;;;0.60;;
7199;SDS011;3641;49.082;8.200;2022-08-01T07:45:37;0.90;;;0.50;;
7199;SDS011;3641;49.082;8.200;2022-08-01T07:48:04;3.17;;;1.00;;
7199;SDS011;3641;49.082;8.200;2022-08-01T07:50:32;1.60;;;0.70;;
7199;SDS011;3641;49.082;8.200;2022-08-01T07:53:00;4.30;;;1.10;;
7199;SDS011;3641;49.082;8.200;2022-08-01T07:55:27;4.68;;;0.98;;
7199;SDS011;3641;49.082;8.200;2022-08-01T07:57:54;2.20;;;0.98;;
7199;SDS011;3641;49.082;8.200;2022-08-01T08:00:20;2.05;;;1.00;;
7199;SDS011;3641;49.082;8.200;2022-08-01T08:02:46;2.38;;;1.00;;
7199;SDS011;3641;49.082;8.200;2022-08-01T08:05:13;1.00;;;0.70;;
7199;SDS011;3641;49.082;8.200;2022-08-01T08:07:40;3.42;;;1.10;;
7199;SDS011;3641;49.082;8.200;2022-08-01T08:10:08;3.15;;;1.00;;
7199;SDS011;3641;49.082;8.200;2022-08-01T08:12:35;3.20;;;0.88;;
7199;SDS011;3641;49.082;8.200;2022-08-01T08:15:02;1.58;;;0.73;;
7199;SDS011;3641;49.082;8.200;2022-08-01T08:17:30;1.35;;;0.90;;
7199;SDS011;3641;49.082;8.200;2022-08-01T08:19:58;1.50;;;0.98;;
7199;SDS011;3641;49.082;8.200;2022-08-01T08:22:25;1.65;;;0.90;;
7199;SDS011;3641;49.082;8.200;2022-08-01T08:24:51;1.63;;;0.90;;
7199;SDS011;3641;49.082;8.200;2022-08-01T08:27:19;2.30;;;1.00;;
7199;SDS011;3641;49.082;8.200;2022-08-01T08:29:45;1.48;;;1.00;;
7199;SDS011;3641;49.082;8.200;2022-08-01T08:32:12;4.82;;;1.00;;
7199;SDS011;3641;49.082;8.200;2022-08-01T08:34:39;4.20;;;1.20;;
7199;SDS011;3641;49.082;8.200;2022-08-01T08:37:05;4.13;;;0.90;;
7199;SDS011;3641;49.082;8.200;2022-08-01T08:39:32;3.60;;;0.90;;
7199;SDS011;3641;49.082;8.200;2022-08-01T08:41:59;1.90;;;0.90;;
7199;SDS011;3641;49.082;8.200;2022-08-01T08:44:28;1.23;;;0.70;;
7199;SDS011;3641;49.082;8.200;2022-08-01T08:46:54;1.75;;;0.98;;
7199;SDS011;3641;49.082;8.200;2022-08-01T08:49:24;2.30;;;0.82;;
7199;SDS011;3641;49.082;8.200;2022-08-01T08:51:53;2.10;;;1.00;;
7199;SDS011;3641;49.082;8.200;2022-08-01T08:54:23;3.13;;;1.10;;
7199;SDS011;3641;49.082;8.200;2022-08-01T08:56:50;2.10;;;1.00;;
7199;SDS011;3641;49.082;8.200;2022-08-01T08:59:17;3.10;;;1.17;;
7199;SDS011;3641;49.082;8.200;2022-08-01T09:01:46;1.25;;;0.93;;
7199;SDS011;3641;49.082;8.200;2022-08-01T09:04:13;2.47;;;1.40;;
7199;SDS011;3641;49.082;8.200;2022-08-01T09:06:40;2.08;;;1.30;;
7199;SDS011;3641;49.082;8.200;2022-08-01T09:09:07;2.45;;;1.23;;
7199;SDS011;3641;49.082;8.200;2022-08-01T09:11:35;2.42;;;1.10;;
7199;SDS011;3641;49.082;8.200;2022-08-01T09:14:04;4.68;;;1.52;;
7199;SDS011;3641;49.082;8.200;2022-08-01T09:16:33;2.17;;;1.25;;
7199;SDS011;3641;49.082;8.200;2022-08-01T09:19:09;3.65;;;1.13;;
7199;SDS011;3641;49.082;8.200;2022-08-01T09:21:37;2.25;;;1.20;;
7199;SDS011;3641;49.082;8.200;2022-08-01T09:24:04;1.83;;;1.10;;
7199;SDS011;3641;49.082;8.200;2022-08-01T09:26:39;2.50;;;1.60;;
7199;SDS011;3641;49.082;8.200;2022-08-01T09:29:07;3.17;;;1.20;;
7199;SDS011;3641;49.082;8.200;2022-08-01T09:31:43;1.63;;;1.25;;
7199;SDS011;3641;49.082;8.200;2022-08-01T09:34:13;4.75;;;1.73;;
7199;SDS011;3641;49.082;8.200;2022-08-01T09:36:43;2.83;;;1.40;;
7199;SDS011;3641;49.082;8.200;2022-08-01T09:39:13;2.00;;;1.20;;
7199;SDS011;3641;49.082;8.200;2022-08-01T09:41:41;5.00;;;1.30;;
7199;SDS011;3641;49.082;8.200;2022-08-01T09:44:07;3.15;;;1.42;;
7199;SDS011;3641;49.082;8.200;2022-08-01T09:46:34;1.80;;;1.38;;
7199;SDS011;3641;49.082;8.200;2022-08-01T09:49:02;3.38;;;1.50;;
7199;SDS011;3641;49.082;8.200;2022-08-01T09:51:32;2.13;;;1.40;;
7199;SDS011;3641;49.082;8.200;2022-08-01T09:54:00;2.50;;;1.30;;
7199;SDS011;3641;49.082;8.200;2022-08-01T09:56:34;3.50;;;1.30;;
7199;SDS011;3641;49.082;8.200;2022-08-01T09:59:02;3.40;;;1.85;;
7199;SDS011;3641;49.082;8.200;2022-08-01T10:01:41;3.22;;;1.50;;
7199;SDS011;3641;49.082;8.200;2022-08-01T10:04:10;3.13;;;1.48;;
7199;SDS011;3641;49.082;8.200;2022-08-01T10:06:39;3.72;;;1.40;;
7199;SDS011;3641;49.082;8.200;2022-08-01T10:09:07;2.67;;;1.30;;
7199;SDS011;3641;49.082;8.200;2022-08-01T10:11:34;3.70;;;1.27;;
7199;SDS011;3641;49.082;8.200;2022-08-01T10:14:04;2.70;;;1.40;;
7199;SDS011;3641;49.082;8.200;2022-08-01T10:16:31;3.83;;;1.73;;
7199;SDS011;3641;49.082;8.200;2022-08-01T10:18:59;3.88;;;1.40;;
7199;SDS011;3641;49.082;8.200;2022-08-01T10:21:27;3.03;;;1.42;;
7199;SDS011;3641;49.082;8.200;2022-08-01T10:23:55;4.25;;;1.58;;
7199;SDS011;3641;49.082;8.200;2022-08-01T10:26:24;2.50;;;1.30;;
7199;SDS011;3641;49.082;8.200;2022-08-01T10:28:52;1.88;;;1.27;;
7199;SDS011;3641;49.082;8.200;2022-08-01T10:31:20;3.13;;;1.55;;
7199;SDS011;3641;49.082;8.200;2022-08-01T10:33:46;2.25;;;1.40;;
7199;SDS011;3641;49.082;8.200;2022-08-01T10:36:14;3.00;;;1.42;;
7199;SDS011;3641;49.082;8.200;2022-08-01T10:38:43;3.50;;;1.60;;
7199;SDS011;3641;49.082;8.200;2022-08-01T10:41:12;3.83;;;1.70;;
7199;SDS011;3641;49.082;8.200;2022-08-01T10:43:41;3.15;;;1.50;;
7199;SDS011;3641;49.082;8.200;2022-08-01T10:46:08;3.08;;;1.10;;
7199;SDS011;3641;49.082;8.200;2022-08-01T10:48:38;2.80;;;1.50;;
7199;SDS011;3641;49.082;8.200;2022-08-01T10:51:09;2.85;;;1.23;;
7199;SDS011;3641;49.082;8.200;2022-08-01T10:53:35;2.80;;;1.48;;
7199;SDS011;3641;49.082;8.200;2022-08-01T10:56:12;1.80;;;1.17;;
7199;SDS011;3641;49.082;8.200;2022-08-01T10:58:41;4.90;;;1.20;;
7199;SDS011;3641;49.082;8.200;2022-08-01T11:01:15;2.13;;;1.13;;
7199;SDS011;3641;49.082;8.200;2022-08-01T11:03:44;2.08;;;1.35;;
7199;SDS011;3641;49.082;8.200;2022-08-01T11:06:23;5.03;;;1.50;;
7199;SDS011;3641;49.082;8.200;2022-08-01T11:08:52;3.08;;;1.45;;
7199;SDS011;3641;49.082;8.200;2022-08-01T11:11:21;1.83;;;1.30;;
7199;SDS011;3641;49.082;8.200;2022-08-01T11:14:01;3.40;;;1.40;;
7199;SDS011;3641;49.082;8.200;2022-08-01T11:16:32;2.58;;;1.42;;
7199;SDS011;3641;49.082;8.200;2022-08-01T11:19:00;3.83;;;1.50;;
7199;SDS011;3641;49.082;8.200;2022-08-01T11:27:24;2.13;;;1.30;;
7199;SDS011;3641;49.082;8.200;2022-08-01T11:32:49;5.05;;;1.55;;
7199;SDS011;3641;49.082;8.200;2022-08-01T11:35:16;2.72;;;1.23;;
7199;SDS011;3641;49.082;8.200;2022-08-01T11:37:45;3.28;;;1.40;;
7199;SDS011;3641;49.082;8.200;2022-08-01T11:40:16;3.08;;;1.30;;
7199;SDS011;3641;49.082;8.200;2022-08-01T11:42:44;4.28;;;1.20;;
7199;SDS011;3641;49.082;8.200;2022-08-01T11:45:11;3.22;;;1.10;;
7199;SDS011;3641;49.082;8.200;2022-08-01T11:47:45;2.42;;;1.30;;
7199;SDS011;3641;49.082;8.200;2022-08-01T11:50:29;2.88;;;1.30;;
7199;SDS011;3641;49.082;8.200;2022-08-01T11:52:57;3.08;;;1.08;;
7199;SDS011;3641;49.082;8.200;2022-08-01T11:55:24;2.88;;;1.20;;
7199;SDS011;3641;49.082;8.200;2022-08-01T11:57:59;3.70;;;1.00;;
7199;SDS011;3641;49.082;8.200;2022-08-01T12:00:27;4.95;;;1.05;;
7199;SDS011;3641;49.082;8.200;2022-08-01T12:02:58;2.35;;;1.00;;
7199;SDS011;3641;49.082;8.200;2022-08-01T12:05:27;1.42;;;1.02;;
7199;SDS011;3641;49.082;8.200;2022-08-01T12:07:54;3.50;;;1.23;;
7199;SDS011;3641;49.082;8.200;2022-08-01T12:10:22;3.28;;;1.20;;
7199;SDS011;3641;49.082;8.200;2022-08-01T12:12:51;3.25;;;1.30;;
7199;SDS011;3641;49.082;8.200;2022-08-01T12:15:20;2.10;;;1.13;;
7199;SDS011;3641;49.082;8.200;2022-08-01T12:17:49;3.92;;;1.10;;
7199;SDS011;3641;49.082;8.200;2022-08-01T12:20:19;2.25;;;0.93;;
7199;SDS011;3641;49.082;8.200;2022-08-01T12:22:47;3.88;;;1.25;;
7199;SDS011;3641;49.082;8.200;2022-08-01T12:25:19;3.50;;;1.40;;
7199;SDS011;3641;49.082;8.200;2022-08-01T12:27:46;3.38;;;1.08;;
7199;SDS011;3641;49.082;8.200;2022-08-01T12:30:15;2.20;;;1.05;;
7199;SDS011;3641;49.082;8.200;2022-08-01T12:32:45;2.60;;;1.33;;
7199;SDS011;3641;49.082;8.200;2022-08-01T12:35:13;2.97;;;0.90;;
7199;SDS011;3641;49.082;8.200;2022-08-01T12:37:41;1.75;;;1.08;;
7199;SDS011;3641;49.082;8.200;2022-08-01T12:40:10;2.50;;;1.15;;
7199;SDS011;3641;49.082;8.200;2022-08-01T12:42:41;1.60;;;0.98;;
7199;SDS011;3641;49.082;8.200;2022-08-01T12:45:10;4.15;;;0.73;;
7199;SDS011;3641;49.082;8.200;2022-08-01T12:47:38;5.45;;;1.45;;
7199;SDS011;3641;49.082;8.200;2022-08-01T12:50:07;1.83;;;0.98;;
7199;SDS011;3641;49.082;8.200;2022-08-01T12:52:36;1.70;;;0.93;;
7199;SDS011;3641;49.082;8.200;2022-08-01T12:55:05;3.38;;;1.00;;
7199;SDS011;3641;49.082;8.200;2022-08-01T12:57:34;3.25;;;0.90;;
7199;SDS011;3641;49.082;8.200;2022-08-01T13:00:07;2.30;;;0.88;;
7199;SDS011;3641;49.082;8.200;2022-08-01T13:02:35;2.38;;;1.00;;
7199;SDS011;3641;49.082;8.200;2022-08-01T13:05:02;1.88;;;1.13;;
7199;SDS011;3641;49.082;8.200;2022-08-01T13:07:41;2.95;;;0.98;;
7199;SDS011;3641;49.082;8.200;2022-08-01T13:10:09;4.05;;;0.93;;
7199;SDS011;3641;49.082;8.200;2022-08-01T13:12:38;1.88;;;0.88;;
7199;SDS011;3641;49.082;8.200;2022-08-01T13:15:17;3.67;;;1.10;;
7199;SDS011;3641;49.082;8.200;2022-08-01T13:17:45;1.27;;;0.85;;
7199;SDS011;3641;49.082;8.200;2022-08-01T13:20:20;2.17;;;1.20;;
7199;SDS011;3641;49.082;8.200;2022-08-01T13:22:52;1.70;;;0.90;;
7199;SDS011;3641;49.082;8.200;2022-08-01T13:25:19;2.25;;;0.90;;
7199;SDS011;3641;49.082;8.200;2022-08-01T13:27:46;4.07;;;1.20;;
7199;SDS011;3641;49.082;8.200;2022-08-01T13:30:13;2.88;;;1.20;;
7199;SDS011;3641;49.082;8.200;2022-08-01T13:32:41;3.17;;;1.10;;
7199;SDS011;3641;49.082;8.200;2022-08-01T13:35:09;2.13;;;0.80;;
7199;SDS011;3641;49.082;8.200;2022-08-01T13:37:38;1.83;;;1.00;;
7199;SDS011;3641;49.082;8.200;2022-08-01T13:40:08;3.58;;;0.88;;
7199;SDS011;3641;49.082;8.200;2022-08-01T13:42:36;3.63;;;0.90;;
7199;SDS011;3641;49.082;8.200;2022-08-01T13:45:03;2.05;;;1.00;;
7199;SDS011;3641;49.082;8.200;2022-08-01T13:47:34;4.63;;;0.90;;
7199;SDS011;3641;49.082;8.200;2022-08-01T13:50:00;2.65;;;0.70;;
7199;SDS011;3641;49.082;8.200;2022-08-01T13:52:27;2.80;;;0.88;;
7199;SDS011;3641;49.082;8.200;2022-08-01T13:54:54;3.80;;;0.88;;
7199;SDS011;3641;49.082;8.200;2022-08-01T13:57:22;2.40;;;0.95;;
7199;SDS011;3641;49.082;8.200;2022-08-01T13:59:48;0.98;;;0.70;;
7199;SDS011;3641;49.082;8.200;2022-08-01T14:02:16;3.63;;;1.20;;
7199;SDS011;3641;49.082;8.200;2022-08-01T14:04:42;4.47;;;1.08;;
7199;SDS011;3641;49.082;8.200;2022-08-01T14:07:09;3.60;;;1.00;;
7199;SDS011;3641;49.082;8.200;2022-08-01T14:09:37;1.13;;;0.85;;
7199;SDS011;3641;49.082;8.200;2022-08-01T14:12:03;1.83;;;0.82;;
7199;SDS011;3641;49.082;8.200;2022-08-01T14:14:31;3.53;;;0.90;;
7199;SDS011;3641;49.082;8.200;2022-08-01T14:16:58;2.28;;;0.88;;
7199;SDS011;3641;49.082;8.200;2022-08-01T14:19:24;2.95;;;0.90;;
7199;SDS011;3641;49.082;8.200;2022-08-01T14:21:51;1.73;;;0.93;;
7199;SDS011;3641;49.082;8.200;2022-08-01T14:24:18;2.97;;;1.02;;
7199;SDS011;3641;49.082;8.200;2022-08-01T14:26:44;1.83;;;0.93;;
7199;SDS011;3641;49.082;8.200;2022-08-01T14:29:11;2.30;;;1.10;;
7199;SDS011;3641;49.082;8.200;2022-08-01T14:31:38;4.13;;;1.17;;
7199;SDS011;3641;49.082;8.200;2022-08-01T14:34:05;1.83;;;0.90;;
7199;SDS011;3641;49.082;8.200;2022-08-01T14:36:32;3.45;;;0.93;;
7199;SDS011;3641;49.082;8.200;2022-08-01T14:38:58;1.88;;;0.85;;
7199;SDS011;3641;49.082;8.200;2022-08-01T14:41:25;3.47;;;1.02;;
7199;SDS011;3641;49.082;8.200;2022-08-01T14:43:51;1.80;;;0.80;;
7199;SDS011;3641;49.082;8.200;2022-08-01T14:46:18;1.88;;;1.08;;
7199;SDS011;3641;49.082;8.200;2022-08-01T14:48:46;3.88;;;0.90;;
7199;SDS011;3641;49.082;8.200;2022-08-01T14:51:12;3.55;;;0.90;;
7199;SDS011;3641;49.082;8.200;2022-08-01T14:53:39;1.98;;;0.90;;
7199;SDS011;3641;49.082;8.200;2022-08-01T14:56:06;3.15;;;1.20;;
7199;SDS011;3641;49.082;8.200;2022-08-01T14:58:33;2.58;;;1.00;;
7199;SDS011;3641;49.082;8.200;2022-08-01T15:00:59;2.13;;;1.10;;
7199;SDS011;3641;49.082;8.200;2022-08-01T15:03:26;1.42;;;1.10;;
7199;SDS011;3641;49.082;8.200;2022-08-01T15:05:54;2.47;;;1.30;;
7199;SDS011;3641;49.082;8.200;2022-08-01T15:08:20;1.98;;;1.23;;
7199;SDS011;3641;49.082;8.200;2022-08-01T15:10:47;3.90;;;1.15;;
7199;SDS011;3641;49.082;8.200;2022-08-01T15:13:13;1.95;;;1.13;;
7199;SDS011;3641;49.082;8.200;2022-08-01T15:15:40;1.70;;;1.10;;
7199;SDS011;3641;49.082;8.200;2022-08-01T15:18:06;2.75;;;1.00;;
7199;SDS011;3641;49.082;8.200;2022-08-01T15:20:33;2.67;;;0.90;;
7199;SDS011;3641;49.082;8.200;2022-08-01T15:23:01;2.67;;;1.27;;
7199;SDS011;3641;49.082;8.200;2022-08-01T15:25:27;2.38;;;1.10;;
7199;SDS011;3641;49.082;8.200;2022-08-01T15:27:54;2.30;;;1.10;;
7199;SDS011;3641;49.082;8.200;2022-08-01T15:30:20;2.78;;;1.38;;